Time;durP1;ratioP1;P1;durP2;ratioP2;P2;SDS_P1;SDS_P2;PMS_P1;PMS_P2;Temp;Humidity;BMP_temperature;BMP_pressure;BME280_temperature;BME280_humidity;BME280_pressure;Samples;Min_cycle;Max_cycle;Signal;HPM_P1;HPM_P2
2022/07/04 00:00:50;;;;;;;1.17;1.05;;;;;;;;;;5015631;28;20087;-41
2022/07/04 00:03:16;;;;;;;5.47;1.42;;;;;;;;;;5015604;28;20095;-41
2022/07/04 00:05:41;;;;;;;6.03;1.50;;;;;;;;;;5015658;28;20463;-42
2022/07/04 00:08:06;;;;;;;3.03;1.67;;;;;;;;;;5015735;28;20056;-42
2022/07/04 00:10:32;;;;;;;1.75;1.40;;;;;;;;;;5015528;28;20427;-41
2022/07/04 00:12:57;;;;;;;1.45;1.23;;;;;;;;;;5015544;28;20460;-41
2022/07/04 00:15:23;;;;;;;3.05;1.48;;;;;;;;;;5015218;28;20038;-41
2022/07/04 00:17:49;;;;;;;1.65;1.40;;;;;;;;;;5015267;28;20036;-41
2022/07/04 00:20:14;;;;;;;2.85;1.35;;;;;;;;;;5015225;28;20049;-41
2022/07/04 00:22:39;;;;;;;2.15;1.50;;;;;;;;;;5015106;28;20030;-41
2022/07/04 00:25:05;;;;;;;1.48;1.35;;;;;;;;;;5015412;28;20041;-41
2022/07/04 00:27:31;;;;;;;3.00;1.60;;;;;;;;;;5015391;28;20755;-41
2022/07/04 00:29:56;;;;;;;1.92;1.17;;;;;;;;;;5013748;28;20076;-41
2022/07/04 00:32:21;;;;;;;3.85;1.30;;;;;;;;;;5015056;28;20109;-42
2022/07/04 00:34:47;;;;;;;1.52;1.30;;;;;;;;;;5014930;28;20472;-42
2022/07/04 00:37:12;;;;;;;5.22;1.98;;;;;;;;;;5014949;28;20014;-42
2022/07/04 00:39:38;;;;;;;3.60;1.60;;;;;;;;;;5014949;28;20042;-42
2022/07/04 00:42:04;;;;;;;5.53;1.63;;;;;;;;;;5015108;28;20415;-43
2022/07/04 00:44:30;;;;;;;2.45;1.60;;;;;;;;;;5014907;28;20030;-42
2022/07/04 00:46:55;;;;;;;6.95;1.50;;;;;;;;;;5014689;28;20014;-41
2022/07/04 00:49:21;;;;;;;2.55;2.05;;;;;;;;;;5014871;28;20116;-41
2022/07/04 00:51:47;;;;;;;3.45;1.40;;;;;;;;;;5014666;28;20451;-41
2022/07/04 00:54:13;;;;;;;2.67;1.63;;;;;;;;;;5014534;28;20150;-42
2022/07/04 00:56:40;;;;;;;2.45;1.33;;;;;;;;;;5014802;28;20307;-42
2022/07/04 00:59:06;;;;;;;2.13;1.65;;;;;;;;;;5014504;28;20025;-42
2022/07/04 01:01:32;;;;;;;2.30;1.77;;;;;;;;;;5014367;28;20021;-41
2022/07/04 01:03:57;;;;;;;2.40;1.70;;;;;;;;;;5029419;28;20049;-41
2022/07/04 01:06:23;;;;;;;6.43;1.35;;;;;;;;;;5012936;28;20395;-41
2022/07/04 01:08:48;;;;;;;1.95;1.48;;;;;;;;;;5014375;28;20022;-41
2022/07/04 01:11:14;;;;;;;2.78;1.40;;;;;;;;;;5014286;28;20018;-46
2022/07/04 01:13:42;;;;;;;3.67;1.60;;;;;;;;;;5012842;28;20042;-41
2022/07/04 01:16:09;;;;;;;2.25;1.50;;;;;;;;;;5014107;28;20018;-41
2022/07/04 01:18:34;;;;;;;5.00;1.50;;;;;;;;;;5014323;28;20045;-41
2022/07/04 01:21:00;;;;;;;1.50;1.23;;;;;;;;;;5029415;28;20029;-43
2022/07/04 01:23:25;;;;;;;3.30;1.63;;;;;;;;;;5013893;28;20553;-41
2022/07/04 01:25:52;;;;;;;1.98;1.45;;;;;;;;;;5014350;28;20014;-41
2022/07/04 01:28:21;;;;;;;2.33;1.95;;;;;;;;;;5014247;28;20073;-41
2022/07/04 01:30:47;;;;;;;2.70;1.55;;;;;;;;;;5013885;28;20030;-41
2022/07/04 01:33:12;;;;;;;2.17;1.77;;;;;;;;;;5014154;28;20480;-42
2022/07/04 01:35:37;;;;;;;2.33;1.48;;;;;;;;;;5014112;28;20340;-42
2022/07/04 01:38:03;;;;;;;3.47;1.65;;;;;;;;;;5013769;28;20049;-41
2022/07/04 01:40:28;;;;;;;2.03;1.77;;;;;;;;;;5013890;28;20097;-41
2022/07/04 01:42:54;;;;;;;2.88;1.42;;;;;;;;;;5013750;28;20546;-42
2022/07/04 01:45:19;;;;;;;4.63;1.52;;;;;;;;;;5013924;28;20025;-41
2022/07/04 01:47:45;;;;;;;2.03;1.52;;;;;;;;;;5013847;28;20372;-41
2022/07/04 01:50:13;;;;;;;4.10;1.70;;;;;;;;;;5013772;28;20458;-41
2022/07/04 01:52:40;;;;;;;3.75;1.70;;;;;;;;;;5013681;28;20115;-41
2022/07/04 01:55:06;;;;;;;3.58;1.50;;;;;;;;;;5013798;28;20018;-41
2022/07/04 01:57:31;;;;;;;1.52;1.27;;;;;;;;;;5013582;28;20026;-41
2022/07/04 02:02:40;;;;;;;3.03;1.42;;;;;;;;;;5013190;28;20045;-42
2022/07/04 02:05:06;;;;;;;2.28;1.50;;;;;;;;;;5013478;28;20030;-41
2022/07/04 02:07:31;;;;;;;1.90;1.30;;;;;;;;;;5011928;28;20379;-41
2022/07/04 02:09:57;;;;;;;1.67;1.38;;;;;;;;;;5013453;28;20018;-42
2022/07/04 02:15:06;;;;;;;3.13;1.42;;;;;;;;;;5013071;28;20034;-41
2022/07/04 02:17:32;;;;;;;2.45;1.73;;;;;;;;;;5012811;28;20032;-41
2022/07/04 02:19:57;;;;;;;1.60;1.50;;;;;;;;;;5012929;28;20076;-42
2022/07/04 02:22:23;;;;;;;1.98;1.30;;;;;;;;;;5012905;28;20068;-42
2022/07/04 02:24:48;;;;;;;4.55;1.75;;;;;;;;;;5012912;28;20038;-41
2022/07/04 02:27:13;;;;;;;1.85;1.20;;;;;;;;;;5013180;28;20101;-41
2022/07/04 02:29:39;;;;;;;3.67;1.38;;;;;;;;;;5012706;28;20060;-42
2022/07/04 02:32:05;;;;;;;4.40;1.65;;;;;;;;;;5012693;28;20018;-42
2022/07/04 02:34:30;;;;;;;2.80;1.80;;;;;;;;;;5012896;28;20045;-42
2022/07/04 02:36:56;;;;;;;2.38;1.95;;;;;;;;;;5012963;28;20064;-41
2022/07/04 02:39:21;;;;;;;2.25;1.60;;;;;;;;;;5012612;28;20040;-42
2022/07/04 02:41:47;;;;;;;6.65;1.95;;;;;;;;;;5012564;28;20053;-41
2022/07/04 02:44:12;;;;;;;2.65;1.58;;;;;;;;;;5011341;28;20128;-41
2022/07/04 02:46:38;;;;;;;2.60;1.92;;;;;;;;;;5012689;28;20075;-41
2022/07/04 02:49:03;;;;;;;3.70;1.45;;;;;;;;;;5012501;28;20026;-41
2022/07/04 02:51:29;;;;;;;1.73;1.35;;;;;;;;;;5012470;28;20399;-41
2022/07/04 02:53:54;;;;;;;2.97;1.80;;;;;;;;;;5012722;28;20483;-41
2022/07/04 02:56:19;;;;;;;2.90;1.77;;;;;;;;;;5012306;28;20539;-42
2022/07/04 02:58:45;;;;;;;5.40;1.75;;;;;;;;;;5011005;28;20036;-42
2022/07/04 03:01:12;;;;;;;2.30;1.90;;;;;;;;;;5012273;28;20026;-41
2022/07/04 03:03:38;;;;;;;2.35;1.70;;;;;;;;;;5011919;28;20078;-42
2022/07/04 03:06:04;;;;;;;1.98;1.50;;;;;;;;;;5012496;28;20061;-41
2022/07/04 03:08:29;;;;;;;1.77;1.40;;;;;;;;;;5011981;28;20609;-41
2022/07/04 03:10:55;;;;;;;5.22;1.58;;;;;;;;;;5012144;28;20109;-42
2022/07/04 03:13:20;;;;;;;2.47;1.70;;;;;;;;;;5012046;28;20046;-41
2022/07/04 03:15:46;;;;;;;4.25;1.38;;;;;;;;;;5012198;28;20021;-41
2022/07/04 03:18:11;;;;;;;4.10;1.60;;;;;;;;;;5012342;28;20112;-41
2022/07/04 03:20:37;;;;;;;1.80;1.70;;;;;;;;;;5012165;28;20357;-41
2022/07/04 03:23:03;;;;;;;5.90;1.30;;;;;;;;;;5012233;28;20030;-41
2022/07/04 03:25:28;;;;;;;2.22;1.30;;;;;;;;;;5012088;28;20056;-41
2022/07/04 03:27:55;;;;;;;2.78;1.70;;;;;;;;;;5011846;28;20450;-41
2022/07/04 03:30:20;;;;;;;3.00;1.90;;;;;;;;;;5011074;28;20022;-42
2022/07/04 03:32:46;;;;;;;2.25;1.60;;;;;;;;;;5011738;28;20507;-42
2022/07/04 03:35:11;;;;;;;2.20;1.35;;;;;;;;;;5011920;28;20517;-41
2022/07/04 03:37:37;;;;;;;2.03;1.45;;;;;;;;;;5011677;28;20034;-41
2022/07/04 03:40:02;;;;;;;3.05;1.40;;;;;;;;;;5011692;28;20014;-41
2022/07/04 03:42:28;;;;;;;2.17;1.58;;;;;;;;;;5011719;28;20105;-41
2022/07/04 03:44:53;;;;;;;2.22;2.03;;;;;;;;;;5011704;28;20029;-42
2022/07/04 03:47:19;;;;;;;6.22;1.58;;;;;;;;;;5011628;28;20088;-41
2022/07/04 03:49:44;;;;;;;1.77;1.35;;;;;;;;;;5011783;28;20522;-41
2022/07/04 03:52:09;;;;;;;1.83;1.60;;;;;;;;;;5011544;28;20583;-42
2022/07/04 03:54:35;;;;;;;3.60;1.65;;;;;;;;;;5011517;28;20034;-41
2022/07/04 03:57:00;;;;;;;5.30;1.60;;;;;;;;;;5011613;28;20091;-41
2022/07/04 03:59:26;;;;;;;4.63;2.20;;;;;;;;;;5011651;28;20029;-42
2022/07/04 04:01:51;;;;;;;3.83;1.83;;;;;;;;;;5011583;28;20034;-42
2022/07/04 04:07:00;;;;;;;2.47;2.28;;;;;;;;;;5011450;28;20065;-41
2022/07/04 04:09:26;;;;;;;10.75;4.20;;;;;;;;;;5011339;28;20049;-41
2022/07/04 04:11:51;;;;;;;1.70;1.60;;;;;;;;;;5011492;28;20037;-41
2022/07/04 04:14:17;;;;;;;3.42;1.25;;;;;;;;;;5011313;28;20569;-42
2022/07/04 04:16:43;;;;;;;3.00;1.63;;;;;;;;;;5011300;28;20029;-41
2022/07/04 04:19:09;;;;;;;2.33;1.40;;;;;;;;;;5011344;28;20061;-41
2022/07/04 04:21:34;;;;;;;4.43;1.52;;;;;;;;;;5011177;28;20033;-41
2022/07/04 04:24:00;;;;;;;2.03;1.73;;;;;;;;;;5011391;28;20022;-41
2022/07/04 04:26:26;;;;;;;1.77;1.52;;;;;;;;;;5011280;28;20045;-41
2022/07/04 04:28:51;;;;;;;5.60;1.75;;;;;;;;;;5011163;28;20067;-41
2022/07/04 04:31:17;;;;;;;6.15;1.75;;;;;;;;;;5011517;28;20121;-41
2022/07/04 04:33:42;;;;;;;3.20;1.77;;;;;;;;;;5011358;28;20044;-41
2022/07/04 04:36:08;;;;;;;2.35;1.40;;;;;;;;;;5011420;28;20668;-41
2022/07/04 04:38:33;;;;;;;4.53;1.65;;;;;;;;;;5011320;28;20076;-41
2022/07/04 04:40:58;;;;;;;5.50;1.60;;;;;;;;;;5012466;28;20719;-42
2022/07/04 04:43:24;;;;;;;2.67;1.25;;;;;;;;;;5014695;28;20032;-41
2022/07/04 04:45:49;;;;;;;2.00;1.60;;;;;;;;;;5014776;28;20044;-41
2022/07/04 04:48:15;;;;;;;2.42;1.33;;;;;;;;;;5014643;28;20112;-42
2022/07/04 04:50:40;;;;;;;1.95;1.60;;;;;;;;;;5014527;28;20053;-41
2022/07/04 04:53:05;;;;;;;2.97;1.42;;;;;;;;;;5014498;28;20117;-43
2022/07/04 04:55:31;;;;;;;2.58;1.70;;;;;;;;;;5014791;28;20030;-42
2022/07/04 04:57:56;;;;;;;4.35;1.48;;;;;;;;;;5014567;28;20022;-41
2022/07/04 05:00:22;;;;;;;2.33;1.60;;;;;;;;;;5014815;28;20018;-41
2022/07/04 05:02:47;;;;;;;3.58;1.55;;;;;;;;;;5014461;28;20030;-41
2022/07/04 05:05:12;;;;;;;4.43;1.50;;;;;;;;;;5014426;28;20069;-42
2022/07/04 05:07:38;;;;;;;17.35;1.75;;;;;;;;;;5014528;28;20029;-41
2022/07/04 05:10:03;;;;;;;3.40;1.52;;;;;;;;;;5014226;28;20042;-42
2022/07/04 05:12:29;;;;;;;3.70;1.63;;;;;;;;;;5012838;28;20400;-42
2022/07/04 05:14:55;;;;;;;2.08;1.45;;;;;;;;;;5014260;28;20426;-44
2022/07/04 05:17:20;;;;;;;2.53;1.33;;;;;;;;;;5014209;28;20041;-41
2022/07/04 05:19:48;;;;;;;2.53;1.70;;;;;;;;;;5014018;28;20117;-41
2022/07/04 05:22:14;;;;;;;5.00;1.50;;;;;;;;;;5014104;28;20022;-41
2022/07/04 05:24:40;;;;;;;4.70;1.60;;;;;;;;;;5014228;28;20432;-42
2022/07/04 05:27:06;;;;;;;2.60;1.80;;;;;;;;;;5014313;28;20026;-41
2022/07/04 05:29:31;;;;;;;4.80;1.40;;;;;;;;;;5013895;28;20026;-41
2022/07/04 05:31:57;;;;;;;2.30;1.33;;;;;;;;;;5014187;28;20482;-41
2022/07/04 05:34:22;;;;;;;2.95;1.55;;;;;;;;;;5014092;28;20096;-41
2022/07/04 05:36:48;;;;;;;3.22;1.70;;;;;;;;;;5012544;28;20080;-41
2022/07/04 05:39:13;;;;;;;3.25;1.58;;;;;;;;;;5013729;28;20088;-41
2022/07/04 05:41:39;;;;;;;1.83;1.42;;;;;;;;;;5013648;28;20056;-41
2022/07/04 05:44:04;;;;;;;1.70;1.55;;;;;;;;;;5013641;28;20069;-41
2022/07/04 05:46:30;;;;;;;5.13;1.67;;;;;;;;;;5013504;28;20085;-42
2022/07/04 05:48:55;;;;;;;6.43;1.27;;;;;;;;;;5013809;28;20030;-41
2022/07/04 05:51:21;;;;;;;1.85;1.40;;;;;;;;;;5013852;28;20471;-41
2022/07/04 05:53:46;;;;;;;6.13;1.70;;;;;;;;;;5012490;28;20044;-41
2022/07/04 05:56:12;;;;;;;2.13;1.83;;;;;;;;;;5012301;28;20630;-41
2022/07/04 05:58:38;;;;;;;2.75;1.90;;;;;;;;;;5013589;28;20387;-41
2022/07/04 06:01:03;;;;;;;2.33;1.60;;;;;;;;;;5013685;28;20076;-41
2022/07/04 06:03:29;;;;;;;5.28;2.45;;;;;;;;;;5013129;28;20069;-41
2022/07/04 06:05:55;;;;;;;1.60;1.48;;;;;;;;;;5013326;28;20026;-41
2022/07/04 06:08:20;;;;;;;2.38;1.48;;;;;;;;;;5013086;28;20061;-41
2022/07/04 06:10:46;;;;;;;3.25;1.70;;;;;;;;;;5013162;28;20049;-41
2022/07/04 06:13:11;;;;;;;2.05;1.45;;;;;;;;;;5013259;28;20034;-41
2022/07/04 06:15:37;;;;;;;3.90;1.75;;;;;;;;;;5013202;28;20057;-41
2022/07/04 06:18:02;;;;;;;2.85;1.75;;;;;;;;;;5013297;28;20037;-41
2022/07/04 06:20:29;;;;;;;1.83;1.50;;;;;;;;;;5013186;28;20280;-42
2022/07/04 06:22:54;;;;;;;2.10;1.63;;;;;;;;;;5012860;28;20494;-41
2022/07/04 06:25:20;;;;;;;2.90;1.67;;;;;;;;;;5012921;28;20025;-41
2022/07/04 06:27:46;;;;;;;1.40;1.30;;;;;;;;;;5012698;28;20422;-41
2022/07/04 06:30:12;;;;;;;1.25;1.15;;;;;;;;;;5012787;28;20032;-41
2022/07/04 06:32:45;;;;;;;2.45;1.60;;;;;;;;;;5012919;28;20049;-41
2022/07/04 06:37:54;;;;;;;5.30;1.85;;;;;;;;;;5012952;28;20041;-41
2022/07/04 06:40:20;;;;;;;1.83;1.58;;;;;;;;;;5012589;28;20466;-42
2022/07/04 06:42:45;;;;;;;3.08;1.73;;;;;;;;;;5012740;28;20033;-41
2022/07/04 06:45:10;;;;;;;1.83;1.58;;;;;;;;;;5012544;28;20381;-40
2022/07/04 06:47:36;;;;;;;1.50;1.40;;;;;;;;;;5012633;28;20092;-41
2022/07/04 06:50:01;;;;;;;1.55;1.40;;;;;;;;;;5012718;28;20022;-41
2022/07/04 06:52:27;;;;;;;2.65;1.60;;;;;;;;;;5012668;28;20084;-41
2022/07/04 06:54:53;;;;;;;1.90;0.98;;;;;;;;;;5012394;28;20091;-41
2022/07/04 06:57:18;;;;;;;2.75;1.40;;;;;;;;;;5027311;28;20059;-41
2022/07/04 06:59:44;;;;;;;5.68;1.20;;;;;;;;;;5012216;28;20121;-41
2022/07/04 07:02:09;;;;;;;2.33;1.70;;;;;;;;;;5012563;28;20100;-41
2022/07/04 07:04:35;;;;;;;5.15;1.80;;;;;;;;;;5011908;28;20259;-42
2022/07/04 07:07:00;;;;;;;3.13;1.27;;;;;;;;;;5012415;28;20026;-42
2022/07/04 07:09:26;;;;;;;3.08;1.60;;;;;;;;;;5011986;28;20053;-42
2022/07/04 07:11:51;;;;;;;2.47;1.35;;;;;;;;;;5012091;28;20037;-41
2022/07/04 07:14:16;;;;;;;5.07;1.73;;;;;;;;;;5011928;28;20033;-42
2022/07/04 07:16:42;;;;;;;4.50;1.20;;;;;;;;;;5010686;28;20030;-42
2022/07/04 07:19:07;;;;;;;2.78;1.33;;;;;;;;;;5011862;28;20029;-41
2022/07/04 07:21:33;;;;;;;2.58;1.60;;;;;;;;;;5011938;28;20030;-41
2022/07/04 07:24:00;;;;;;;4.07;1.50;;;;;;;;;;5011977;28;20157;-41
2022/07/04 07:26:26;;;;;;;2.67;1.58;;;;;;;;;;5011852;28;20395;-41
2022/07/04 07:28:51;;;;;;;4.05;1.88;;;;;;;;;;5010762;28;20025;-42
2022/07/04 07:31:16;;;;;;;1.65;1.30;;;;;;;;;;5011854;28;20032;-41
2022/07/04 07:33:42;;;;;;;2.63;1.70;;;;;;;;;;5011597;28;20029;-41
2022/07/04 07:36:07;;;;;;;1.58;1.48;;;;;;;;;;5011752;28;20026;-40
2022/07/04 07:38:33;;;;;;;3.00;1.52;;;;;;;;;;5011901;28;20021;-41
2022/07/04 07:40:59;;;;;;;5.90;1.92;;;;;;;;;;5010640;28;20025;-41
2022/07/04 07:43:24;;;;;;;1.75;1.50;;;;;;;;;;5011731;28;20034;-41
2022/07/04 07:45:50;;;;;;;2.25;1.30;;;;;;;;;;4994028;28;20026;-41
2022/07/04 07:48:16;;;;;;;2.13;1.63;;;;;;;;;;5010309;28;20084;-42
2022/07/04 07:50:41;;;;;;;1.67;1.40;;;;;;;;;;5011659;28;20426;-44
2022/07/04 07:53:07;;;;;;;2.08;1.60;;;;;;;;;;5011634;28;20026;-42
2022/07/04 07:55:32;;;;;;;1.95;1.70;;;;;;;;;;5011526;28;20022;-41
2022/07/04 07:57:58;;;;;;;1.65;1.40;;;;;;;;;;5011723;28;20500;-41
2022/07/04 08:00:24;;;;;;;1.65;1.33;;;;;;;;;;5011715;28;20547;-41
2022/07/04 08:05:33;;;;;;;1.58;1.15;;;;;;;;;;5011529;28;20030;-41
2022/07/04 08:07:59;;;;;;;1.80;1.35;;;;;;;;;;5011589;28;20056;-42
2022/07/04 08:10:25;;;;;;;4.13;1.73;;;;;;;;;;5011432;28;20072;-41
2022/07/04 08:12:51;;;;;;;1.58;1.40;;;;;;;;;;5011447;28;20030;-41
2022/07/04 08:15:17;;;;;;;7.47;2.22;;;;;;;;;;5011709;28;20040;-41
2022/07/04 08:17:44;;;;;;;4.80;1.42;;;;;;;;;;5015511;28;20018;-41
2022/07/04 08:20:10;;;;;;;2.75;1.27;;;;;;;;;;5014868;28;20117;-41
2022/07/04 08:22:36;;;;;;;3.05;1.42;;;;;;;;;;5013802;28;20442;-41
2022/07/04 08:25:02;;;;;;;3.08;1.33;;;;;;;;;;5015211;28;20022;-41
2022/07/04 08:27:27;;;;;;;3.70;1.40;;;;;;;;;;5015386;28;20475;-41
2022/07/04 08:29:53;;;;;;;2.15;1.40;;;;;;;;;;5014955;28;20492;-40
2022/07/04 08:32:18;;;;;;;2.63;1.80;;;;;;;;;;5015047;28;20025;-42
2022/07/04 08:34:45;;;;;;;1.92;1.55;;;;;;;;;;5014966;28;20037;-41
2022/07/04 08:37:11;;;;;;;3.10;1.52;;;;;;;;;;5014833;28;20069;-41
2022/07/04 08:39:37;;;;;;;3.75;1.45;;;;;;;;;;5015108;28;20100;-41
2022/07/04 08:42:05;;;;;;;3.17;1.35;;;;;;;;;;5014857;28;20463;-41
2022/07/04 08:44:32;;;;;;;8.65;1.85;;;;;;;;;;5014685;28;20037;-41
2022/07/04 08:46:57;;;;;;;6.93;2.47;;;;;;;;;;5015062;28;20125;-41
2022/07/04 08:49:29;;;;;;;1.85;1.70;;;;;;;;;;5015094;28;20634;-41
2022/07/04 08:52:08;;;;;;;2.15;1.40;;;;;;;;;;5014887;28;20471;-40
2022/07/04 09:00:06;;;;;;;1.77;1.42;;;;;;;;;;5014559;28;20541;-41
2022/07/04 09:02:32;;;;;;;1.77;1.30;;;;;;;;;;5013434;28;20032;-40
2022/07/04 09:04:59;;;;;;;5.60;2.10;;;;;;;;;;5013764;28;20068;-41
2022/07/04 09:07:26;;;;;;;7.40;1.40;;;;;;;;;;5014741;28;20041;-41
2022/07/04 09:09:53;;;;;;;6.20;1.52;;;;;;;;;;5014350;28;20369;-41
2022/07/04 09:12:18;;;;;;;5.38;1.63;;;;;;;;;;5014160;28;20026;-41
2022/07/04 09:14:44;;;;;;;2.30;1.23;;;;;;;;;;5029392;28;20045;-41
2022/07/04 09:17:09;;;;;;;2.15;1.60;;;;;;;;;;5013170;28;20068;-42
2022/07/04 09:19:35;;;;;;;1.65;1.25;;;;;;;;;;5014231;28;20534;-41
2022/07/04 09:22:09;;;;;;;1.88;1.20;;;;;;;;;;5012912;28;20064;-41
2022/07/04 09:24:44;;;;;;;4.85;1.35;;;;;;;;;;5013928;28;20087;-42
2022/07/04 09:27:10;;;;;;;2.55;1.23;;;;;;;;;;5013129;28;20026;-41
2022/07/04 09:29:51;;;;;;;3.25;1.35;;;;;;;;;;5014116;28;20456;-41
2022/07/04 09:32:23;;;;;;;1.40;1.30;;;;;;;;;;5014151;28;20030;-41
2022/07/04 09:34:55;;;;;;;2.95;1.40;;;;;;;;;;5014034;28;20045;-41
2022/07/04 09:37:21;;;;;;;2.10;1.42;;;;;;;;;;5013871;28;20116;-41
2022/07/04 09:39:46;;;;;;;4.07;1.52;;;;;;;;;;5028856;28;20116;-41
2022/07/04 09:42:12;;;;;;;1.48;1.33;;;;;;;;;;5013978;28;20033;-41
2022/07/04 09:44:44;;;;;;;1.70;0.80;;;;;;;;;;5013971;28;20030;-41
2022/07/04 09:47:22;;;;;;;1.88;1.27;;;;;;;;;;5013626;28;20109;-42
2022/07/04 09:50:06;;;;;;;1.23;1.02;;;;;;;;;;5013744;28;20124;-41
2022/07/04 09:52:43;;;;;;;1.85;1.10;;;;;;;;;;5028741;28;21913;-41
2022/07/04 09:55:08;;;;;;;12.88;2.40;;;;;;;;;;5013773;28;20415;-41
2022/07/04 09:57:34;;;;;;;1.88;1.77;;;;;;;;;;5013476;28;20022;-41
2022/07/04 10:00:18;;;;;;;2.17;1.05;;;;;;;;;;5013682;28;20029;-41
2022/07/04 10:02:44;;;;;;;1.90;1.25;;;;;;;;;;5013037;28;20427;-41
2022/07/04 10:05:10;;;;;;;2.88;0.88;;;;;;;;;;5013553;28;20056;-42
2022/07/04 10:07:37;;;;;;;5.65;1.08;;;;;;;;;;5013467;28;20464;-42
2022/07/04 10:10:23;;;;;;;4.97;1.50;;;;;;;;;;5013394;28;20026;-42
2022/07/04 10:12:49;;;;;;;1.35;1.10;;;;;;;;;;5013261;28;20038;-41
2022/07/04 10:15:15;;;;;;;0.93;0.90;;;;;;;;;;5013098;28;20109;-42
2022/07/04 10:17:40;;;;;;;1.23;0.93;;;;;;;;;;5028133;28;20132;-41
2022/07/04 10:20:06;;;;;;;2.92;1.42;;;;;;;;;;5012897;28;20053;-41
2022/07/04 10:22:32;;;;;;;4.00;1.42;;;;;;;;;;5012886;28;20390;-41
2022/07/04 10:24:58;;;;;;;0.82;0.77;;;;;;;;;;5013111;28;20022;-42
2022/07/04 10:27:24;;;;;;;2.10;0.90;;;;;;;;;;5011595;28;20037;-42
2022/07/04 10:29:49;;;;;;;1.85;1.10;;;;;;;;;;5012631;28;20025;-41
2022/07/04 10:32:15;;;;;;;1.27;1.10;;;;;;;;;;5012709;28;20033;-42
2022/07/04 10:34:41;;;;;;;1.75;0.77;;;;;;;;;;5012634;28;20083;-42
2022/07/04 10:37:06;;;;;;;2.13;1.73;;;;;;;;;;5012899;28;20037;-41
2022/07/04 10:39:32;;;;;;;1.65;1.20;;;;;;;;;;5012158;28;20018;-41
2022/07/04 10:41:58;;;;;;;2.60;2.03;;;;;;;;;;5012665;28;20033;-41
2022/07/04 10:44:25;;;;;;;3.70;1.13;;;;;;;;;;5012488;28;20041;-41
2022/07/04 10:46:52;;;;;;;4.95;1.33;;;;;;;;;;5012461;28;20500;-41
2022/07/04 10:49:18;;;;;;;8.13;1.50;;;;;;;;;;5012413;28;20097;-41
2022/07/04 10:51:45;;;;;;;3.63;0.88;;;;;;;;;;5012268;28;20060;-42
2022/07/04 10:54:12;;;;;;;1.67;1.40;;;;;;;;;;5012604;28;20361;-41
2022/07/04 10:56:48;;;;;;;1.80;1.42;;;;;;;;;;5012220;28;20369;-43
2022/07/04 10:59:16;;;;;;;1.75;1.23;;;;;;;;;;5012251;28;20036;-42
2022/07/04 11:01:49;;;;;;;0.75;0.65;;;;;;;;;;5012436;28;20057;-41
2022/07/04 11:04:34;;;;;;;2.97;1.08;;;;;;;;;;5012196;28;20494;-42
2022/07/04 11:07:00;;;;;;;1.88;0.93;;;;;;;;;;5011902;28;20041;-42
2022/07/04 11:09:26;;;;;;;1.00;1.00;;;;;;;;;;5012354;28;20113;-41
2022/07/04 11:11:54;;;;;;;1.30;0.90;;;;;;;;;;5012044;28;20022;-41
2022/07/04 11:14:30;;;;;;;1.73;1.23;;;;;;;;;;5011955;28;20033;-42
2022/07/04 11:16:55;;;;;;;2.03;1.20;;;;;;;;;;5011980;28;20488;-41
2022/07/04 11:19:22;;;;;;;5.85;1.88;;;;;;;;;;5011990;28;20020;-41
2022/07/04 11:21:48;;;;;;;4.85;1.13;;;;;;;;;;5011765;28;20033;-41
2022/07/04 11:24:13;;;;;;;1.88;0.93;;;;;;;;;;5011918;28;20044;-41
2022/07/04 11:26:39;;;;;;;1.90;1.08;;;;;;;;;;5011812;28;20042;-41
2022/07/04 11:29:04;;;;;;;3.08;1.15;;;;;;;;;;5011871;28;20045;-41
2022/07/04 11:31:40;;;;;;;1.45;1.00;;;;;;;;;;5027135;28;20108;-41
2022/07/04 11:34:06;;;;;;;2.97;1.50;;;;;;;;;;5011920;28;20056;-41
2022/07/04 11:36:32;;;;;;;3.60;1.77;;;;;;;;;;5011732;28;20100;-41
2022/07/04 11:38:58;;;;;;;2.47;1.15;;;;;;;;;;5011934;28;20025;-41
2022/07/04 11:47:05;;;;;;;5.97;1.27;;;;;;;;;;4991973;28;20443;-42
2022/07/04 11:49:30;;;;;;;1.13;1.02;;;;;;;;;;4991652;28;20076;-42
2022/07/04 11:51:56;;;;;;;2.70;1.40;;;;;;;;;;4991453;28;20030;-41
2022/07/04 11:54:21;;;;;;;3.00;1.40;;;;;;;;;;4991867;28;20053;-42
2022/07/04 11:56:47;;;;;;;3.03;1.38;;;;;;;;;;4991788;28;20019;-42
2022/07/04 11:59:15;;;;;;;1.60;1.17;;;;;;;;;;4991889;28;20034;-41
2022/07/04 12:01:41;;;;;;;3.45;1.73;;;;;;;;;;4991820;28;20447;-41
2022/07/04 12:04:13;;;;;;;4.40;1.30;;;;;;;;;;4991789;28;20054;-41
2022/07/04 12:06:38;;;;;;;2.03;1.20;;;;;;;;;;4991867;28;20031;-41
2022/07/04 12:09:04;;;;;;;1.45;0.90;;;;;;;;;;4991833;28;20080;-42
2022/07/04 12:11:48;;;;;;;2.75;1.58;;;;;;;;;;4991760;28;20058;-41
2022/07/04 12:14:14;;;;;;;1.77;1.30;;;;;;;;;;4991714;28;20063;-42
2022/07/04 12:16:40;;;;;;;1.20;1.05;;;;;;;;;;4991659;28;20376;-41
2022/07/04 12:19:11;;;;;;;4.63;1.10;;;;;;;;;;4991624;28;20045;-41
2022/07/04 12:21:36;;;;;;;1.27;1.17;;;;;;;;;;4991588;28;20038;-42
2022/07/04 12:24:05;;;;;;;3.53;1.70;;;;;;;;;;4991682;28;20019;-42
2022/07/04 12:26:30;;;;;;;2.75;0.80;;;;;;;;;;4991650;28;20032;-41
2022/07/04 12:28:56;;;;;;;7.45;1.40;;;;;;;;;;4991590;28;20027;-42
2022/07/04 12:31:41;;;;;;;2.88;2.03;;;;;;;;;;4991474;28;20790;-41
2022/07/04 12:34:16;;;;;;;3.70;1.08;;;;;;;;;;4991590;28;20551;-41
2022/07/04 12:36:48;;;;;;;1.90;1.27;;;;;;;;;;4991588;28;20027;-41
2022/07/04 12:39:26;;;;;;;1.70;1.40;;;;;;;;;;4991873;28;20052;-42
2022/07/04 12:42:03;;;;;;;5.55;1.23;;;;;;;;;;4991552;28;20526;-41
2022/07/04 12:44:28;;;;;;;1.50;1.00;;;;;;;;;;4991531;28;20492;-41
2022/07/04 12:46:56;;;;;;;1.38;1.00;;;;;;;;;;4991450;28;20023;-42
2022/07/04 12:49:21;;;;;;;2.63;1.10;;;;;;;;;;4991354;28;20118;-41
2022/07/04 12:51:47;;;;;;;9.52;2.72;;;;;;;;;;4991286;28;20101;-41
2022/07/04 12:54:12;;;;;;;1.80;1.17;;;;;;;;;;4991344;28;20061;-43
2022/07/04 12:56:40;;;;;;;3.42;1.40;;;;;;;;;;4991268;28;20088;-42
2022/07/04 12:59:06;;;;;;;2.08;1.10;;;;;;;;;;4991587;28;20392;-41
2022/07/04 13:01:32;;;;;;;1.42;1.02;;;;;;;;;;4991872;28;20125;-41
2022/07/04 13:03:58;;;;;;;1.50;1.17;;;;;;;;;;4994581;28;20196;-41
2022/07/04 13:06:24;;;;;;;2.70;1.10;;;;;;;;;;4995049;28;20026;-41
2022/07/04 13:08:49;;;;;;;2.80;1.15;;;;;;;;;;4994499;28;20026;-41
2022/07/04 13:13:59;;;;;;;4.90;1.38;;;;;;;;;;4993357;28;20039;-41
2022/07/04 13:16:25;;;;;;;1.50;0.98;;;;;;;;;;4994867;28;20026;-41
2022/07/04 13:18:50;;;;;;;2.42;1.30;;;;;;;;;;4994394;28;20061;-42
2022/07/04 13:21:16;;;;;;;1.63;0.90;;;;;;;;;;4994405;28;20022;-42
2022/07/04 13:23:42;;;;;;;4.78;1.38;;;;;;;;;;4994674;28;20077;-41
2022/07/04 13:26:07;;;;;;;3.55;1.10;;;;;;;;;;4994689;28;20091;-42
2022/07/04 13:28:33;;;;;;;1.25;0.95;;;;;;;;;;4994211;28;20030;-41
2022/07/04 13:30:58;;;;;;;4.05;1.10;;;;;;;;;;4994388;28;20022;-41
2022/07/04 13:33:24;;;;;;;1.05;0.85;;;;;;;;;;4994168;28;20054;-41
2022/07/04 13:35:49;;;;;;;1.63;1.05;;;;;;;;;;4994160;28;20088;-41
2022/07/04 13:38:15;;;;;;;2.65;1.45;;;;;;;;;;4994176;28;20129;-42
2022/07/04 13:40:44;;;;;;;0.98;0.88;;;;;;;;;;4992758;28;20028;-42
2022/07/04 13:43:10;;;;;;;3.00;1.02;;;;;;;;;;4994363;28;20038;-41
2022/07/04 13:45:38;;;;;;;3.70;1.52;;;;;;;;;;4994231;28;20375;-41
2022/07/04 13:48:03;;;;;;;1.92;1.30;;;;;;;;;;4993965;28;20034;-42
2022/07/04 13:50:29;;;;;;;2.60;1.05;;;;;;;;;;4994146;28;20026;-41
2022/07/04 13:52:54;;;;;;;1.52;0.70;;;;;;;;;;4993822;28;20070;-42
2022/07/04 13:55:20;;;;;;;2.00;1.10;;;;;;;;;;4994166;28;20025;-42
2022/07/04 13:57:45;;;;;;;3.25;1.10;;;;;;;;;;4993627;28;20514;-41
2022/07/04 14:00:11;;;;;;;2.55;0.80;;;;;;;;;;4992519;28;20125;-41
2022/07/04 14:02:37;;;;;;;2.80;1.13;;;;;;;;;;4993946;28;20034;-41
2022/07/04 14:05:03;;;;;;;2.38;1.27;;;;;;;;;;4993449;28;20566;-42
2022/07/04 14:07:28;;;;;;;1.92;1.17;;;;;;;;;;4993895;28;20047;-41
2022/07/04 14:09:54;;;;;;;1.40;1.08;;;;;;;;;;4993827;28;20214;-42
2022/07/04 14:12:20;;;;;;;2.35;0.95;;;;;;;;;;4993798;28;20109;-41
2022/07/04 14:14:46;;;;;;;1.85;0.98;;;;;;;;;;4992795;28;20527;-41
2022/07/04 14:17:11;;;;;;;2.00;1.23;;;;;;;;;;4993475;28;20034;-41
2022/07/04 14:19:37;;;;;;;2.42;0.93;;;;;;;;;;4975849;28;20031;-41
2022/07/04 14:22:02;;;;;;;1.60;1.23;;;;;;;;;;4993603;28;20038;-42
2022/07/04 14:24:28;;;;;;;1.38;1.10;;;;;;;;;;4993359;28;20022;-42
2022/07/04 14:26:54;;;;;;;2.97;1.52;;;;;;;;;;4993211;28;20026;-42
2022/07/04 14:29:19;;;;;;;2.83;0.90;;;;;;;;;;4993106;28;20029;-42
2022/07/04 14:31:45;;;;;;;1.73;1.27;;;;;;;;;;4993097;28;20030;-43
2022/07/04 14:34:11;;;;;;;1.67;1.35;;;;;;;;;;4993091;28;20038;-42
2022/07/04 14:36:37;;;;;;;1.27;1.10;;;;;;;;;;4991743;28;20048;-41
2022/07/04 14:39:03;;;;;;;1.20;1.10;;;;;;;;;;4993047;28;20698;-41
2022/07/04 14:41:28;;;;;;;2.25;1.13;;;;;;;;;;4992985;28;20033;-41
2022/07/04 14:43:55;;;;;;;2.63;1.08;;;;;;;;;;4992906;28;20254;-41
2022/07/04 14:46:21;;;;;;;1.27;1.10;;;;;;;;;;4992811;28;20034;-42
2022/07/04 14:48:47;;;;;;;2.95;1.70;;;;;;;;;;4992676;28;20076;-41
2022/07/04 14:51:12;;;;;;;1.70;1.42;;;;;;;;;;4992834;28;20034;-41
2022/07/04 14:53:38;;;;;;;2.20;1.30;;;;;;;;;;4992520;28;20113;-41
2022/07/04 14:56:04;;;;;;;1.52;1.10;;;;;;;;;;4993048;28;20028;-41
2022/07/04 14:58:29;;;;;;;1.63;0.98;;;;;;;;;;4992694;28;20112;-41
2022/07/04 15:00:55;;;;;;;2.50;1.10;;;;;;;;;;4992584;28;20476;-42
2022/07/04 15:03:21;;;;;;;1.00;0.90;;;;;;;;;;4992431;28;20082;-42
2022/07/04 15:05:46;;;;;;;3.40;1.50;;;;;;;;;;4992473;28;20034;-41